Time;durP1;ratioP1;P1;durP2;ratioP2;P2;SDS_P1;SDS_P2;PMS_P1;PMS_P2;Temp;Humidity;BMP_temperature;BMP_pressure;BME280_temperature;BME280_humidity;BME280_pressure;Samples;Min_cycle;Max_cycle;Signal;HPM_P1;HPM_P2
2021/11/28 00:00:45;;;;;;;5.33;3.17;;;;;;;;;;5028324;28;20181;-49
2021/11/28 00:03:13;;;;;;;6.30;3.77;;;;;;;;;;5009604;28;20201;-49
2021/11/28 00:05:39;;;;;;;7.43;4.27;;;;;;;;;;5009037;28;20232;-48
2021/11/28 00:10:52;;;;;;;6.47;3.93;;;;;;;;;;5029180;28;20629;-50
2021/11/28 00:13:32;;;;;;;6.67;3.73;;;;;;;;;;5009308;28;20243;-50
2021/11/28 00:16:01;;;;;;;6.60;3.70;;;;;;;;;;5027710;28;20691;-49
2021/11/28 00:18:28;;;;;;;3.60;2.90;;;;;;;;;;5028084;28;20224;-52
2021/11/28 00:20:54;;;;;;;7.60;3.80;;;;;;;;;;5029377;28;20189;-48
2021/11/28 00:23:20;;;;;;;7.70;3.83;;;;;;;;;;5028709;28;20174;-49
2021/11/28 00:25:47;;;;;;;5.30;3.90;;;;;;;;;;5027492;28;20208;-49
2021/11/28 00:28:13;;;;;;;6.43;4.27;;;;;;;;;;5028562;28;20542;-51
2021/11/28 00:30:40;;;;;;;3.97;3.40;;;;;;;;;;5028638;28;20184;-49
2021/11/28 00:33:12;;;;;;;4.57;4.13;;;;;;;;;;5027175;28;20208;-48
2021/11/28 00:35:38;;;;;;;4.93;3.63;;;;;;;;;;5011552;28;20276;-50
2021/11/28 00:38:05;;;;;;;4.77;3.77;;;;;;;;;;5026852;28;20185;-49
2021/11/28 00:40:31;;;;;;;4.53;3.50;;;;;;;;;;5010946;28;20213;-48
2021/11/28 00:42:58;;;;;;;6.53;4.03;;;;;;;;;;5009920;28;20661;-49
2021/11/28 00:45:25;;;;;;;5.70;3.83;;;;;;;;;;5017518;28;20171;-49
2021/11/28 00:47:51;;;;;;;5.57;3.50;;;;;;;;;;5023549;28;20178;-49
2021/11/28 00:50:25;;;;;;;5.80;4.13;;;;;;;;;;5010592;28;20314;-50
2021/11/28 00:52:54;;;;;;;6.63;3.60;;;;;;;;;;5026016;28;20173;-50
2021/11/28 00:55:21;;;;;;;5.23;3.83;;;;;;;;;;5008915;28;20182;-51
2021/11/28 00:57:47;;;;;;;6.33;3.93;;;;;;;;;;5026723;28;20185;-49
2021/11/28 01:00:13;;;;;;;3.93;3.53;;;;;;;;;;5008290;28;20181;-48
2021/11/28 01:02:39;;;;;;;6.67;4.67;;;;;;;;;;5007725;28;20688;-49
2021/11/28 01:05:06;;;;;;;3.97;3.47;;;;;;;;;;5007028;28;20531;-49
2021/11/28 01:07:32;;;;;;;4.70;3.93;;;;;;;;;;5025346;28;20198;-49
2021/11/28 01:09:59;;;;;;;6.83;4.00;;;;;;;;;;5028280;28;20182;-50
2021/11/28 01:12:25;;;;;;;5.77;3.70;;;;;;;;;;5027626;28;20189;-49
2021/11/28 01:14:52;;;;;;;4.23;3.60;;;;;;;;;;5020628;28;20220;-48
2021/11/28 01:17:18;;;;;;;6.27;3.90;;;;;;;;;;5020497;28;20558;-47
2021/11/28 01:19:45;;;;;;;3.80;3.40;;;;;;;;;;5025077;28;20190;-49
2021/11/28 01:22:12;;;;;;;4.17;3.30;;;;;;;;;;5028288;28;20178;-48
2021/11/28 01:24:39;;;;;;;4.37;3.50;;;;;;;;;;5020307;28;20286;-49
2021/11/28 01:27:06;;;;;;;7.23;3.67;;;;;;;;;;5023870;28;20209;-50
2021/11/28 01:29:32;;;;;;;3.97;3.37;;;;;;;;;;5022485;28;20608;-51
2021/11/28 01:31:59;;;;;;;5.80;3.10;;;;;;;;;;5021961;28;20638;-49
2021/11/28 01:34:25;;;;;;;4.63;3.50;;;;;;;;;;5023677;28;20186;-49
2021/11/28 01:36:52;;;;;;;4.27;3.17;;;;;;;;;;5025953;28;20659;-49
2021/11/28 01:39:18;;;;;;;3.83;3.43;;;;;;;;;;5025538;28;20645;-49
2021/11/28 01:41:44;;;;;;;5.10;3.50;;;;;;;;;;5030110;28;20664;-48
2021/11/28 01:44:11;;;;;;;6.60;3.20;;;;;;;;;;5026188;28;20228;-49
2021/11/28 01:46:38;;;;;;;5.87;3.83;;;;;;;;;;5025961;28;20204;-49
2021/11/28 01:49:06;;;;;;;4.70;3.17;;;;;;;;;;5006776;28;20217;-50
2021/11/28 01:51:32;;;;;;;7.70;3.93;;;;;;;;;;5027492;28;20323;-48
2021/11/28 01:53:58;;;;;;;6.60;3.50;;;;;;;;;;5025523;28;20197;-48
2021/11/28 01:56:25;;;;;;;5.13;3.80;;;;;;;;;;5023942;28;20733;-50
2021/11/28 01:58:51;;;;;;;4.33;3.20;;;;;;;;;;5009319;28;20194;-50
2021/11/28 02:01:18;;;;;;;5.03;3.53;;;;;;;;;;5026474;28;20272;-49
2021/11/28 02:03:47;;;;;;;5.60;3.40;;;;;;;;;;5009531;28;20186;-52
2021/11/28 02:06:15;;;;;;;4.40;3.40;;;;;;;;;;4994044;28;20210;-50
2021/11/28 02:08:42;;;;;;;4.57;4.10;;;;;;;;;;5009595;28;20181;-49
2021/11/28 02:11:08;;;;;;;4.63;3.73;;;;;;;;;;5027129;28;20655;-50
2021/11/28 02:13:35;;;;;;;5.33;3.43;;;;;;;;;;5026677;28;20178;-49
2021/11/28 02:16:01;;;;;;;4.93;3.63;;;;;;;;;;5027421;28;20273;-52
2021/11/28 02:18:27;;;;;;;5.67;4.00;;;;;;;;;;5009140;28;20178;-50
2021/11/28 02:20:55;;;;;;;4.87;3.50;;;;;;;;;;5028706;28;20193;-49
2021/11/28 02:23:22;;;;;;;5.30;3.70;;;;;;;;;;4996285;28;20220;-48
2021/11/28 02:25:49;;;;;;;6.03;3.67;;;;;;;;;;5007561;28;20647;-49
2021/11/28 02:28:16;;;;;;;4.60;3.37;;;;;;;;;;5011674;28;20649;-48
2021/11/28 02:30:45;;;;;;;3.57;3.27;;;;;;;;;;5011761;28;20173;-48
2021/11/28 02:33:12;;;;;;;4.77;3.37;;;;;;;;;;5027698;28;20573;-49
2021/11/28 02:35:38;;;;;;;4.57;3.60;;;;;;;;;;5037590;28;20461;-49
2021/11/28 02:38:05;;;;;;;7.30;3.40;;;;;;;;;;5038699;28;20181;-49
2021/11/28 02:40:31;;;;;;;4.00;3.10;;;;;;;;;;5030718;28;20576;-48
2021/11/28 02:42:57;;;;;;;4.43;3.83;;;;;;;;;;5029398;28;20572;-50
2021/11/28 02:45:25;;;;;;;5.03;3.90;;;;;;;;;;5030871;28;20660;-49
2021/11/28 02:47:52;;;;;;;4.67;3.50;;;;;;;;;;5026307;28;20185;-49
2021/11/28 02:50:19;;;;;;;3.30;3.00;;;;;;;;;;5004871;28;20217;-49
2021/11/28 02:52:53;;;;;;;4.43;3.30;;;;;;;;;;5009610;28;20611;-49
2021/11/28 02:55:23;;;;;;;3.73;3.10;;;;;;;;;;5010629;28;20185;-49
2021/11/28 02:57:50;;;;;;;4.73;3.23;;;;;;;;;;5029285;28;20527;-49
2021/11/28 03:00:18;;;;;;;3.50;3.00;;;;;;;;;;5032138;28;20740;-50
2021/11/28 03:02:44;;;;;;;4.67;3.07;;;;;;;;;;5029179;28;20190;-49
2021/11/28 03:05:11;;;;;;;5.60;3.70;;;;;;;;;;5030583;28;20797;-49
2021/11/28 03:07:39;;;;;;;5.33;3.63;;;;;;;;;;5010468;28;20632;-49
2021/11/28 03:10:06;;;;;;;4.77;3.50;;;;;;;;;;5012194;28;20185;-48
2021/11/28 03:12:32;;;;;;;4.87;3.30;;;;;;;;;;5008979;28;20214;-48
2021/11/28 03:14:58;;;;;;;6.37;3.63;;;;;;;;;;5012666;28;20178;-50
2021/11/28 03:17:24;;;;;;;4.67;3.67;;;;;;;;;;5027457;28;20178;-50
2021/11/28 03:19:50;;;;;;;4.17;3.50;;;;;;;;;;5011914;28;20170;-48
2021/11/28 03:22:17;;;;;;;4.27;3.47;;;;;;;;;;5019915;28;20647;-50
2021/11/28 03:24:43;;;;;;;4.87;3.40;;;;;;;;;;5011272;28;20324;-50
2021/11/28 03:27:12;;;;;;;4.80;3.07;;;;;;;;;;5028312;28;20668;-49
2021/11/28 03:29:38;;;;;;;4.60;3.23;;;;;;;;;;5011503;28;20173;-48
2021/11/28 03:32:04;;;;;;;5.57;3.43;;;;;;;;;;5027848;28;20192;-48
2021/11/28 03:34:31;;;;;;;4.03;3.50;;;;;;;;;;5029672;28;20170;-49
2021/11/28 03:36:58;;;;;;;3.87;3.47;;;;;;;;;;5010670;28;20247;-48
2021/11/28 03:39:26;;;;;;;4.07;3.43;;;;;;;;;;5028484;28;20209;-48
2021/11/28 03:41:54;;;;;;;6.77;3.73;;;;;;;;;;5028279;28;20178;-49
2021/11/28 03:44:21;;;;;;;4.07;3.17;;;;;;;;;;5009543;28;20193;-48
2021/11/28 03:46:47;;;;;;;4.90;3.33;;;;;;;;;;5009558;28;20205;-48
2021/11/28 03:49:13;;;;;;;6.57;4.03;;;;;;;;;;5028428;28;20209;-50
2021/11/28 03:51:40;;;;;;;6.20;3.97;;;;;;;;;;5011424;28;20193;-49
2021/11/28 03:54:06;;;;;;;4.10;3.20;;;;;;;;;;5011204;28;20269;-48
2021/11/28 03:56:34;;;;;;;5.07;3.17;;;;;;;;;;5010124;28;20254;-50
2021/11/28 03:59:00;;;;;;;6.13;2.90;;;;;;;;;;5019059;28;20546;-49
2021/11/28 04:01:27;;;;;;;3.43;3.10;;;;;;;;;;5007732;28;20182;-50
2021/11/28 04:03:53;;;;;;;3.60;3.07;;;;;;;;;;5009562;28;20184;-48
2021/11/28 04:06:21;;;;;;;4.77;3.20;;;;;;;;;;5010999;28;20719;-50
2021/11/28 04:08:51;;;;;;;4.60;3.53;;;;;;;;;;5027838;28;20200;-50
2021/11/28 04:11:18;;;;;;;3.00;2.70;;;;;;;;;;5027183;28;20649;-50
2021/11/28 04:13:45;;;;;;;3.60;3.07;;;;;;;;;;5003948;28;20216;-49
2021/11/28 04:16:11;;;;;;;5.90;3.20;;;;;;;;;;4993483;28;20186;-49
2021/11/28 04:18:39;;;;;;;4.57;3.40;;;;;;;;;;5009268;28;20281;-47
2021/11/28 04:21:05;;;;;;;3.33;3.03;;;;;;;;;;5013667;28;20194;-49
2021/11/28 04:23:31;;;;;;;3.33;2.93;;;;;;;;;;5010731;28;20636;-48
2021/11/28 04:25:57;;;;;;;6.03;3.23;;;;;;;;;;5027562;28;20237;-52
2021/11/28 04:28:24;;;;;;;4.13;3.33;;;;;;;;;;5014996;28;20181;-49
2021/11/28 04:30:50;;;;;;;4.10;3.20;;;;;;;;;;5010489;28;20178;-50
2021/11/28 04:33:16;;;;;;;4.23;3.10;;;;;;;;;;5020449;28;20182;-48
2021/11/28 04:35:43;;;;;;;4.13;2.97;;;;;;;;;;5013934;28;20636;-51
2021/11/28 04:38:13;;;;;;;4.50;3.23;;;;;;;;;;5012439;28;20675;-51
2021/11/28 04:40:39;;;;;;;3.47;2.90;;;;;;;;;;5010783;28;20185;-49
2021/11/28 04:43:06;;;;;;;3.83;3.23;;;;;;;;;;5007968;28;20641;-49
2021/11/28 04:45:32;;;;;;;5.73;3.33;;;;;;;;;;5028428;28;20650;-49
2021/11/28 04:47:58;;;;;;;3.73;3.20;;;;;;;;;;5013338;28;20208;-50
2021/11/28 04:50:25;;;;;;;3.73;3.20;;;;;;;;;;5025873;28;20228;-49
2021/11/28 04:52:51;;;;;;;4.90;3.00;;;;;;;;;;5017558;28;20657;-49
2021/11/28 04:55:18;;;;;;;3.93;2.90;;;;;;;;;;5003991;28;20178;-51
2021/11/28 04:57:45;;;;;;;3.67;3.07;;;;;;;;;;5031274;28;20196;-48
2021/11/28 05:00:19;;;;;;;4.73;3.20;;;;;;;;;;5020557;28;20277;-48
2021/11/28 05:02:45;;;;;;;3.33;2.67;;;;;;;;;;5024898;28;20181;-48
2021/11/28 05:05:12;;;;;;;4.43;3.23;;;;;;;;;;4995584;28;20178;-48
2021/11/28 05:07:39;;;;;;;2.83;2.60;;;;;;;;;;5014000;28;20220;-49
2021/11/28 05:10:06;;;;;;;3.83;3.23;;;;;;;;;;5032205;28;20198;-49
2021/11/28 05:12:35;;;;;;;5.73;3.17;;;;;;;;;;5027093;28;20174;-52
2021/11/28 05:15:02;;;;;;;5.93;3.40;;;;;;;;;;5011251;28;20668;-48
2021/11/28 05:17:28;;;;;;;4.40;3.10;;;;;;;;;;5009157;28;20675;-49
2021/11/28 05:19:58;;;;;;;4.27;2.90;;;;;;;;;;5010395;28;20268;-49
2021/11/28 05:22:24;;;;;;;5.30;3.27;;;;;;;;;;5026594;28;20181;-50
2021/11/28 05:24:52;;;;;;;3.40;3.10;;;;;;;;;;5026914;28;20182;-49
2021/11/28 05:27:19;;;;;;;5.80;3.50;;;;;;;;;;5013266;28;20190;-50
2021/11/28 05:29:48;;;;;;;6.00;3.80;;;;;;;;;;5026937;28;20171;-52
2021/11/28 05:32:15;;;;;;;4.77;3.10;;;;;;;;;;5026423;28;20376;-50
2021/11/28 05:34:42;;;;;;;3.13;2.67;;;;;;;;;;5010406;28;20594;-50
2021/11/28 05:37:08;;;;;;;4.63;3.40;;;;;;;;;;5026786;28;20186;-49
2021/11/28 05:39:35;;;;;;;3.53;2.93;;;;;;;;;;5028453;28;20239;-51
2021/11/28 05:42:01;;;;;;;3.80;3.20;;;;;;;;;;5012595;28;20182;-49
2021/11/28 05:44:28;;;;;;;3.27;2.97;;;;;;;;;;5009473;28;20543;-49
2021/11/28 05:46:54;;;;;;;5.23;3.50;;;;;;;;;;5006399;28;20202;-49
2021/11/28 05:49:20;;;;;;;4.10;3.43;;;;;;;;;;5004175;28;20533;-49
2021/11/28 05:51:47;;;;;;;5.23;3.03;;;;;;;;;;4998885;28;20689;-49
2021/11/28 05:54:13;;;;;;;5.00;3.10;;;;;;;;;;4990936;28;20619;-48
2021/11/28 05:56:39;;;;;;;4.00;2.80;;;;;;;;;;5009251;28;20202;-49
2021/11/28 05:59:05;;;;;;;4.10;3.00;;;;;;;;;;4994710;28;20198;-50
2021/11/28 06:01:33;;;;;;;4.17;2.93;;;;;;;;;;5010575;28;20545;-50
2021/11/28 06:04:00;;;;;;;2.83;2.40;;;;;;;;;;5011424;28;20213;-49
2021/11/28 06:06:26;;;;;;;4.67;3.43;;;;;;;;;;4995299;28;20198;-48
2021/11/28 06:08:53;;;;;;;4.13;3.47;;;;;;;;;;4979058;28;20422;-49
2021/11/28 06:11:19;;;;;;;3.50;2.90;;;;;;;;;;5010082;28;20188;-50
2021/11/28 06:13:45;;;;;;;4.70;3.27;;;;;;;;;;4992634;28;20170;-49
2021/11/28 06:16:12;;;;;;;3.30;3.00;;;;;;;;;;4992787;28;20186;-49
2021/11/28 06:18:38;;;;;;;3.67;3.07;;;;;;;;;;4990248;28;20265;-49
2021/11/28 06:21:05;;;;;;;3.93;3.07;;;;;;;;;;5002163;28;20190;-49
2021/11/28 06:23:32;;;;;;;3.47;3.13;;;;;;;;;;4998485;28;20552;-48
2021/11/28 06:25:58;;;;;;;4.40;2.77;;;;;;;;;;5010427;28;20194;-50
2021/11/28 06:28:25;;;;;;;3.63;3.27;;;;;;;;;;4984735;28;20174;-50
2021/11/28 06:30:51;;;;;;;4.93;2.90;;;;;;;;;;5004815;28;20166;-49
2021/11/28 06:33:17;;;;;;;3.17;2.83;;;;;;;;;;4992164;28;20419;-49
2021/11/28 06:35:43;;;;;;;4.17;3.20;;;;;;;;;;5010867;28;20171;-49
2021/11/28 06:38:10;;;;;;;3.87;3.03;;;;;;;;;;4993551;28;20413;-49
2021/11/28 06:40:36;;;;;;;4.73;3.30;;;;;;;;;;5009376;28;20175;-49
2021/11/28 06:43:03;;;;;;;3.50;3.07;;;;;;;;;;4987504;28;20175;-50
2021/11/28 06:45:30;;;;;;;3.73;3.10;;;;;;;;;;4993388;28;20694;-49
2021/11/28 06:47:56;;;;;;;3.40;3.07;;;;;;;;;;5008906;28;20206;-49
2021/11/28 06:50:22;;;;;;;3.23;2.90;;;;;;;;;;5024842;28;20453;-49
2021/11/28 06:52:49;;;;;;;3.23;2.93;;;;;;;;;;5011542;28;20178;-48
2021/11/28 06:55:15;;;;;;;3.33;3.03;;;;;;;;;;5010784;28;20178;-50
2021/11/28 06:57:44;;;;;;;5.50;3.50;;;;;;;;;;5009438;28;20414;-49
2021/11/28 07:00:10;;;;;;;4.73;3.33;;;;;;;;;;5024778;28;20182;-51
2021/11/28 07:02:37;;;;;;;4.20;3.70;;;;;;;;;;5027613;28;20780;-49
2021/11/28 07:05:03;;;;;;;4.27;3.13;;;;;;;;;;5012986;28;20641;-49
2021/11/28 07:07:30;;;;;;;4.97;3.47;;;;;;;;;;5011283;28;20202;-48
2021/11/28 07:09:56;;;;;;;5.47;3.50;;;;;;;;;;5030308;28;20276;-50
2021/11/28 07:12:23;;;;;;;4.03;3.27;;;;;;;;;;5026714;28;20178;-50
2021/11/28 07:14:50;;;;;;;3.90;3.20;;;;;;;;;;5030161;28;20623;-48
2021/11/28 07:17:17;;;;;;;4.20;3.43;;;;;;;;;;5019256;28;20268;-49
2021/11/28 07:19:43;;;;;;;4.70;3.30;;;;;;;;;;5012486;28;20181;-49
2021/11/28 07:22:10;;;;;;;4.13;3.50;;;;;;;;;;5011728;28;20671;-49
2021/11/28 07:24:36;;;;;;;4.77;3.53;;;;;;;;;;5028920;28;20185;-50
2021/11/28 07:27:02;;;;;;;3.17;2.87;;;;;;;;;;5009143;28;20197;-49
2021/11/28 07:29:28;;;;;;;4.00;3.10;;;;;;;;;;5029291;28;20205;-50
2021/11/28 07:31:55;;;;;;;4.30;3.37;;;;;;;;;;5023911;28;20193;-51
2021/11/28 07:34:21;;;;;;;4.60;3.03;;;;;;;;;;5029790;28;20181;-51
2021/11/28 07:36:47;;;;;;;5.53;3.33;;;;;;;;;;5001805;28;20680;-49
2021/11/28 07:39:13;;;;;;;3.90;3.20;;;;;;;;;;5029630;28;20544;-50
2021/11/28 07:41:40;;;;;;;5.20;3.40;;;;;;;;;;5026546;28;20182;-50
2021/11/28 07:44:06;;;;;;;4.03;3.10;;;;;;;;;;5027961;28;20181;-51
2021/11/28 07:46:33;;;;;;;5.07;3.40;;;;;;;;;;5009847;28;20202;-49
2021/11/28 07:48:59;;;;;;;4.30;3.20;;;;;;;;;;5012584;28;20587;-50
2021/11/28 07:51:25;;;;;;;4.97;3.20;;;;;;;;;;5010919;28;20166;-49
2021/11/28 07:53:52;;;;;;;3.50;3.03;;;;;;;;;;5011617;28;20178;-50
2021/11/28 07:56:22;;;;;;;3.33;3.03;;;;;;;;;;5027677;28;20197;-49
2021/11/28 07:58:49;;;;;;;3.53;3.10;;;;;;;;;;5005196;28;20178;-49
2021/11/28 08:01:16;;;;;;;3.97;3.10;;;;;;;;;;5023189;28;20216;-51
2021/11/28 08:03:45;;;;;;;4.17;3.00;;;;;;;;;;5011268;28;20232;-50
2021/11/28 08:06:12;;;;;;;3.87;3.20;;;;;;;;;;5010708;28;20212;-47
2021/11/28 08:08:38;;;;;;;5.03;3.70;;;;;;;;;;5027515;28;20680;-49
2021/11/28 08:11:05;;;;;;;3.57;3.17;;;;;;;;;;5006249;28;20267;-49
2021/11/28 08:13:31;;;;;;;4.27;3.53;;;;;;;;;;5001674;28;20180;-49
2021/11/28 08:15:57;;;;;;;4.43;3.33;;;;;;;;;;5007581;28;20707;-49
2021/11/28 08:18:27;;;;;;;3.43;2.93;;;;;;;;;;5006048;28;20265;-48
2021/11/28 08:20:53;;;;;;;3.53;3.20;;;;;;;;;;5027517;28;20207;-49
2021/11/28 08:23:20;;;;;;;4.27;2.90;;;;;;;;;;5010310;28;20200;-49
2021/11/28 08:25:46;;;;;;;4.97;3.30;;;;;;;;;;5009777;28;20664;-49
2021/11/28 08:28:12;;;;;;;3.57;3.27;;;;;;;;;;5023186;28;20671;-49
2021/11/28 08:30:41;;;;;;;4.70;3.70;;;;;;;;;;5026107;28;20184;-49
2021/11/28 08:33:07;;;;;;;3.70;3.37;;;;;;;;;;5009553;28;20332;-49
2021/11/28 08:35:34;;;;;;;4.27;3.30;;;;;;;;;;5014193;28;20184;-49
2021/11/28 08:38:00;;;;;;;3.63;3.17;;;;;;;;;;5007452;28;20642;-48
2021/11/28 08:40:27;;;;;;;3.93;3.20;;;;;;;;;;5017843;28;20235;-49
2021/11/28 08:42:53;;;;;;;3.97;3.60;;;;;;;;;;5032543;28;20686;-48
2021/11/28 08:45:20;;;;;;;6.13;3.80;;;;;;;;;;5026838;28;20201;-48
2021/11/28 08:47:47;;;;;;;4.17;3.27;;;;;;;;;;5013042;28;20742;-49
2021/11/28 08:50:16;;;;;;;3.87;3.30;;;;;;;;;;5010681;28;20222;-49
2021/11/28 08:52:44;;;;;;;3.90;3.53;;;;;;;;;;4991070;28;20193;-49
2021/11/28 08:55:11;;;;;;;4.60;3.33;;;;;;;;;;5013443;28;20657;-48
2021/11/28 08:57:37;;;;;;;4.10;3.50;;;;;;;;;;4993188;28;20202;-50
2021/11/28 09:00:08;;;;;;;5.83;3.73;;;;;;;;;;5000113;28;20319;-49
2021/11/28 09:02:34;;;;;;;5.03;3.60;;;;;;;;;;5006765;28;20178;-48
2021/11/28 09:05:02;;;;;;;4.07;3.57;;;;;;;;;;5009211;28;20185;-49
2021/11/28 09:07:28;;;;;;;3.90;3.43;;;;;;;;;;5008886;28;20589;-48
2021/11/28 09:09:54;;;;;;;3.73;3.27;;;;;;;;;;5008827;28;20256;-49
2021/11/28 09:12:21;;;;;;;3.67;3.33;;;;;;;;;;4990664;28;20662;-49
2021/11/28 09:14:47;;;;;;;4.57;3.23;;;;;;;;;;4991216;28;20615;-51
2021/11/28 09:17:14;;;;;;;4.80;4.23;;;;;;;;;;4999929;28;20812;-49
2021/11/28 09:25:01;;;;;;;5.93;3.80;;;;;;;;;;5009133;28;20405;-48
2021/11/28 09:27:28;;;;;;;5.90;4.30;;;;;;;;;;4990632;28;20527;-50
2021/11/28 09:29:55;;;;;;;4.67;4.00;;;;;;;;;;4993234;28;20256;-49
2021/11/28 09:32:21;;;;;;;5.00;4.10;;;;;;;;;;4993924;28;20182;-50
2021/11/28 09:34:47;;;;;;;4.90;3.67;;;;;;;;;;4998038;28;20201;-49
2021/11/28 09:37:13;;;;;;;5.47;4.53;;;;;;;;;;5012718;28;20545;-49
2021/11/28 09:39:42;;;;;;;5.37;4.07;;;;;;;;;;5012695;28;20193;-49
2021/11/28 09:42:10;;;;;;;4.93;4.40;;;;;;;;;;4993060;28;20178;-50
2021/11/28 09:44:38;;;;;;;5.57;4.97;;;;;;;;;;5011094;28;20693;-50
2021/11/28 09:47:09;;;;;;;4.87;4.43;;;;;;;;;;5005364;28;20453;-49
2021/11/28 09:49:35;;;;;;;6.20;4.83;;;;;;;;;;4994662;28;20218;-48
2021/11/28 09:52:06;;;;;;;5.77;4.83;;;;;;;;;;5011979;28;20214;-48
2021/11/28 09:54:33;;;;;;;5.17;4.67;;;;;;;;;;5003771;28;20600;-49
2021/11/28 09:56:59;;;;;;;6.20;5.00;;;;;;;;;;5011014;28;20705;-49
2021/11/28 09:59:25;;;;;;;6.57;5.37;;;;;;;;;;5004899;28;20716;-48
2021/11/28 10:01:51;;;;;;;7.37;5.87;;;;;;;;;;5002094;28;20182;-49
2021/11/28 10:04:18;;;;;;;6.90;6.20;;;;;;;;;;5011870;28;20170;-49
2021/11/28 10:06:44;;;;;;;8.03;5.93;;;;;;;;;;4997721;28;20200;-48
2021/11/28 10:09:10;;;;;;;7.77;5.77;;;;;;;;;;5017272;28;20182;-48
2021/11/28 10:11:43;;;;;;;6.70;5.77;;;;;;;;;;5010133;28;20241;-48
2021/11/28 10:14:13;;;;;;;8.10;6.57;;;;;;;;;;5009279;28;20240;-50
2021/11/28 10:16:40;;;;;;;7.80;5.70;;;;;;;;;;5002331;28;20542;-51
2021/11/28 10:19:07;;;;;;;8.57;6.60;;;;;;;;;;4993246;28;20245;-49
2021/11/28 10:21:33;;;;;;;7.23;5.43;;;;;;;;;;4999724;28;20556;-47
2021/11/28 10:24:06;;;;;;;7.60;6.57;;;;;;;;;;5009455;28;20801;-48
2021/11/28 10:26:33;;;;;;;7.87;6.10;;;;;;;;;;5006036;28;20206;-49
2021/11/28 10:29:07;;;;;;;9.03;6.50;;;;;;;;;;5011791;28;20897;-49
2021/11/28 10:31:43;;;;;;;6.33;5.57;;;;;;;;;;5008895;28;20208;-50
2021/11/28 10:34:16;;;;;;;8.87;7.37;;;;;;;;;;5011340;28;20182;-50
2021/11/28 10:36:42;;;;;;;8.23;6.67;;;;;;;;;;5009226;28;20175;-49
2021/11/28 10:39:13;;;;;;;8.53;6.83;;;;;;;;;;4999982;28;20233;-50
2021/11/28 10:41:46;;;;;;;8.50;6.90;;;;;;;;;;5004988;28;20206;-49
2021/11/28 10:44:12;;;;;;;8.77;6.90;;;;;;;;;;4992113;28;20675;-50
2021/11/28 10:46:39;;;;;;;9.53;7.50;;;;;;;;;;4995725;28;20959;-50
2021/11/28 10:49:07;;;;;;;8.43;7.60;;;;;;;;;;5009847;28;20595;-49
2021/11/28 10:51:37;;;;;;;10.47;8.33;;;;;;;;;;5031405;28;20170;-49
2021/11/28 10:54:20;;;;;;;9.67;8.57;;;;;;;;;;5013064;28;20265;-49
2021/11/28 10:56:47;;;;;;;12.07;9.33;;;;;;;;;;5029539;28;20217;-48
2021/11/28 10:59:21;;;;;;;12.73;8.60;;;;;;;;;;5014669;28;20181;-49
2021/11/28 11:01:47;;;;;;;12.80;9.33;;;;;;;;;;5012022;28;20178;-48
2021/11/28 11:04:20;;;;;;;16.33;10.60;;;;;;;;;;5030169;28;20530;-47
2021/11/28 11:07:05;;;;;;;19.13;12.37;;;;;;;;;;5019625;28;20194;-46
2021/11/28 11:09:40;;;;;;;18.73;13.33;;;;;;;;;;5032403;28;20573;-47
2021/11/28 11:12:28;;;;;;;17.10;12.43;;;;;;;;;;5012475;28;20644;-48
2021/11/28 11:14:56;;;;;;;23.07;12.60;;;;;;;;;;5012897;28;20174;-50
2021/11/28 11:17:23;;;;;;;16.87;11.93;;;;;;;;;;5010449;28;20180;-49
2021/11/28 11:19:50;;;;;;;16.40;12.27;;;;;;;;;;5018715;28;20193;-49
2021/11/28 11:22:18;;;;;;;17.57;12.70;;;;;;;;;;5029191;28;20184;-50
2021/11/28 11:24:51;;;;;;;13.50;11.33;;;;;;;;;;5011351;28;20255;-52
2021/11/28 11:27:22;;;;;;;19.40;12.27;;;;;;;;;;5028547;28;20224;-51
2021/11/28 11:29:50;;;;;;;13.83;11.53;;;;;;;;;;5029214;28;20257;-51
2021/11/28 11:32:22;;;;;;;17.50;12.27;;;;;;;;;;5026413;28;20174;-52
2021/11/28 11:34:52;;;;;;;17.40;13.13;;;;;;;;;;5030019;28;20645;-51
2021/11/28 11:37:19;;;;;;;16.00;12.10;;;;;;;;;;5028179;28;20224;-52
2021/11/28 11:39:46;;;;;;;16.17;12.63;;;;;;;;;;5028146;28;20177;-51
2021/11/28 11:42:15;;;;;;;15.10;12.70;;;;;;;;;;5028208;28;20510;-51
2021/11/28 11:44:44;;;;;;;18.50;12.90;;;;;;;;;;5028894;28;20178;-49
2021/11/28 11:47:10;;;;;;;16.37;13.10;;;;;;;;;;5016747;28;20206;-49
2021/11/28 11:49:41;;;;;;;16.10;13.47;;;;;;;;;;5010732;28;20292;-49
2021/11/28 11:52:07;;;;;;;18.23;14.30;;;;;;;;;;5027333;28;20174;-49
2021/11/28 11:54:39;;;;;;;22.13;15.20;;;;;;;;;;5028589;28;20209;-51
2021/11/28 11:57:10;;;;;;;22.47;14.90;;;;;;;;;;5026518;28;20684;-51
2021/11/28 11:59:55;;;;;;;19.40;14.50;;;;;;;;;;5029488;28;20217;-50
2021/11/28 12:02:30;;;;;;;21.10;14.43;;;;;;;;;;5027252;28;20212;-52
2021/11/28 12:04:56;;;;;;;22.90;15.27;;;;;;;;;;5030543;28;20761;-51
2021/11/28 12:07:42;;;;;;;19.33;14.33;;;;;;;;;;5027789;28;20241;-51
2021/11/28 12:10:26;;;;;;;19.27;14.03;;;;;;;;;;5028526;28;20189;-50
2021/11/28 12:12:53;;;;;;;20.93;14.90;;;;;;;;;;5028281;28;20182;-49
2021/11/28 12:15:26;;;;;;;20.00;13.90;;;;;;;;;;5029909;28;20181;-50
2021/11/28 12:17:54;;;;;;;19.13;13.80;;;;;;;;;;5028164;28;20216;-50
2021/11/28 12:20:39;;;;;;;18.63;13.20;;;;;;;;;;5008302;28;20182;-50
2021/11/28 12:23:05;;;;;;;19.27;12.87;;;;;;;;;;5006896;28;20195;-50
2021/11/28 12:25:42;;;;;;;18.40;14.17;;;;;;;;;;5028876;28;20182;-49
2021/11/28 12:28:21;;;;;;;20.53;13.93;;;;;;;;;;5016771;28;20584;-50
2021/11/28 12:30:55;;;;;;;16.50;12.37;;;;;;;;;;5023511;28;20185;-50
2021/11/28 12:33:41;;;;;;;18.63;13.07;;;;;;;;;;5029004;28;20184;-48
2021/11/28 12:36:07;;;;;;;15.97;11.70;;;;;;;;;;5028264;28;20551;-51
2021/11/28 12:38:49;;;;;;;12.20;10.40;;;;;;;;;;5028247;28;20188;-48
2021/11/28 12:41:15;;;;;;;16.87;9.97;;;;;;;;;;5029197;28;20182;-49
2021/11/28 12:44:01;;;;;;;13.23;10.23;;;;;;;;;;5026903;28;20245;-50
2021/11/28 12:46:44;;;;;;;11.47;9.63;;;;;;;;;;5021115;28;20268;-49
2021/11/28 12:49:25;;;;;;;12.13;10.10;;;;;;;;;;5012214;28;20263;-49
2021/11/28 12:51:52;;;;;;;11.87;9.47;;;;;;;;;;5008988;28;20180;-50
2021/11/28 12:54:25;;;;;;;11.90;9.57;;;;;;;;;;5018315;28;20182;-50
2021/11/28 12:57:10;;;;;;;10.90;8.83;;;;;;;;;;5023642;28;20246;-49
2021/11/28 12:59:36;;;;;;;11.00;9.73;;;;;;;;;;5012831;28;20188;-50
2021/11/28 13:02:03;;;;;;;10.63;9.20;;;;;;;;;;5008329;28;20546;-49
2021/11/28 13:04:41;;;;;;;12.43;9.83;;;;;;;;;;5001576;28;20174;-51
2021/11/28 13:07:27;;;;;;;10.67;9.57;;;;;;;;;;5011042;28;20193;-49
2021/11/28 13:09:56;;;;;;;13.13;9.50;;;;;;;;;;4996503;28;20213;-48
2021/11/28 13:12:24;;;;;;;10.40;9.03;;;;;;;;;;5026527;28;20200;-49
2021/11/28 13:14:51;;;;;;;12.07;9.60;;;;;;;;;;5026328;28;20236;-49
2021/11/28 13:17:24;;;;;;;11.33;10.13;;;;;;;;;;5009294;28;20243;-50
2021/11/28 13:19:51;;;;;;;11.87;9.60;;;;;;;;;;5017947;28;20182;-49
2021/11/28 13:22:18;;;;;;;12.70;10.37;;;;;;;;;;4993353;28;20921;-50
2021/11/28 13:24:44;;;;;;;12.27;10.20;;;;;;;;;;5009820;28;20188;-49
2021/11/28 13:27:11;;;;;;;10.30;9.20;;;;;;;;;;5009753;28;20197;-48
2021/11/28 13:29:38;;;;;;;11.60;9.70;;;;;;;;;;5006626;28;20178;-51
2021/11/28 13:32:13;;;;;;;9.90;8.67;;;;;;;;;;5024698;28;20269;-51
2021/11/28 13:34:39;;;;;;;13.83;9.87;;;;;;;;;;5007330;28;20184;-48
2021/11/28 13:37:05;;;;;;;9.70;8.70;;;;;;;;;;5010265;28;20181;-49
2021/11/28 13:39:32;;;;;;;12.17;8.80;;;;;;;;;;5028124;28;20208;-49
2021/11/28 13:41:59;;;;;;;10.37;9.13;;;;;;;;;;5008493;28;20251;-50
2021/11/28 13:44:27;;;;;;;12.23;9.70;;;;;;;;;;5007858;28;20205;-52
2021/11/28 13:46:53;;;;;;;12.53;8.90;;;;;;;;;;5026628;28;20185;-50
2021/11/28 13:49:26;;;;;;;11.60;9.37;;;;;;;;;;5026307;28;20222;-50
2021/11/28 13:52:00;;;;;;;12.53;10.17;;;;;;;;;;5008875;28;20174;-50
2021/11/28 13:54:28;;;;;;;12.63;9.70;;;;;;;;;;5027263;28;20171;-49
2021/11/28 13:57:02;;;;;;;12.03;10.17;;;;;;;;;;5027488;28;20206;-49
2021/11/28 13:59:47;;;;;;;10.30;8.87;;;;;;;;;;5027324;28;20186;-51
2021/11/28 14:02:16;;;;;;;13.77;10.13;;;;;;;;;;5008823;28;20213;-50
2021/11/28 14:04:46;;;;;;;13.07;10.23;;;;;;;;;;5025452;28;20688;-49
2021/11/28 14:07:14;;;;;;;12.23;9.53;;;;;;;;;;5019812;28;20212;-50
2021/11/28 14:09:41;;;;;;;12.83;10.00;;;;;;;;;;5010623;28;20657;-51
2021/11/28 14:12:12;;;;;;;14.63;11.37;;;;;;;;;;5026957;28;20528;-47
2021/11/28 14:14:46;;;;;;;13.37;10.50;;;;;;;;;;5027483;28;20258;-50
2021/11/28 14:17:12;;;;;;;10.97;9.57;;;;;;;;;;5030828;28;20679;-48
2021/11/28 14:19:41;;;;;;;13.30;9.37;;;;;;;;;;5008911;28;20561;-48
2021/11/28 14:22:26;;;;;;;12.40;10.67;;;;;;;;;;5031159;28;20601;-47
2021/11/28 14:24:52;;;;;;;13.37;10.93;;;;;;;;;;5022802;28;20192;-49
2021/11/28 14:27:23;;;;;;;11.30;10.10;;;;;;;;;;5011923;28;20205;-48
2021/11/28 14:29:59;;;;;;;11.93;10.30;;;;;;;;;;5018152;28;20205;-48
2021/11/28 14:32:25;;;;;;;12.60;10.47;;;;;;;;;;5009427;28;20260;-49
2021/11/28 14:34:52;;;;;;;12.87;10.80;;;;;;;;;;5032116;28;20180;-48
2021/11/28 14:37:19;;;;;;;17.25;12.45;;;;;;;;;;5029485;28;20448;-47
2021/11/28 14:39:46;;;;;;;16.37;11.30;;;;;;;;;;5031037;28;20525;-51
2021/11/28 14:42:16;;;;;;;13.93;10.87;;;;;;;;;;5030082;28;21702;-50
2021/11/28 14:44:47;;;;;;;12.97;10.10;;;;;;;;;;5030221;28;20185;-48
2021/11/28 14:47:31;;;;;;;12.27;10.20;;;;;;;;;;5032467;28;20564;-48
2021/11/28 14:50:01;;;;;;;13.87;9.83;;;;;;;;;;5023616;28;20212;-48
2021/11/28 14:52:31;;;;;;;12.67;10.70;;;;;;;;;;5027979;28;20631;-49